Coldwater, MI

4:42 AM EDT on August 22, 2017 (GMT -0400)
Branch County Memorial

Weather History for KOEB - May, 2013

Change the Weather History Date:

Tuesday, May 14, 2013

  Actual Average (KJYM) Record (KJYM)
Temperature  
Mean Temperature 62 °F -  
Max Temperature 80 °F 68 °F 87 °F (1962)
Min Temperature 44 °F 45 °F 27 °F (1973)
Degree Days  
Heating Degree Days 3    
Growing Degree Days 12 (Base 50)    
Moisture  
Dew Point 40 °F    
Average Humidity 45    
Maximum Humidity 72    
Minimum Humidity 31    
Precipitation  
Precipitation 0.00 in - - ()
Sea Level Pressure  
Sea Level Pressure 29.87 in    
Wind  
Wind Speed 7 mph (South)    
Max Wind Speed 21 mph    
Max Gust Speed 28 mph    
Visibility 10 miles    
Events Rain    
Averages and records for this station are not official NWS values.
T = Trace of Precipitation, MM = Missing Value Source: NWS Daily Summary

Daily Weather History Graph

Daily Weather History Graph

Search for Another Location

Airport or City:

Trip Planner

Search our weather history database for the weather conditions in past years. The results will help you decide how hot, cold, wet, or windy it might be!

Date:

Astronomy

May. 14, 2013 Rise Set
Actual Time 6:20 AM EDT 8:53 PM EDT
Civil Twilight 5:48 AM EDT 9:24 PM EDT
Nautical Twilight 5:09 AM EDT 10:04 PM EDT
Astronomical Twilight 4:24 AM EDT 10:49 PM EDT
Moon 9:59 AM EDT (5/14) 12:00 AM EDT (5/14)
Length of Visible Light 15h 36m
Length of Day
14h 32m
Waxing Crescent, 19% of the Moon is Illuminated
May 14
Waxing Crescent
May 18
First Quarter
May 25
Full
May 31
Last Quarter
Jun 8
New

Hourly Weather History & Observations

Time (EDT) Temp. Windchill Dew Point Humidity Pressure Visibility Wind Dir Wind Speed Gust Speed Precip Events Conditions
12:15 AM 44.4 °F 42.9 °F 33.1 °F 64% 30.08 in 10.0 mi SE 3.5 mph - N/A   Mostly Cloudy
12:35 AM 45.5 °F 44.2 °F 32.7 °F 61% 30.08 in 10.0 mi SE 3.5 mph - N/A   Overcast
12:55 AM 46.4 °F 44.3 °F 32.0 °F 57% 30.08 in 10.0 mi SSE 4.6 mph - N/A   Overcast
1:15 AM 46.8 °F - 31.8 °F 56% 30.07 in 10.0 mi SSE 3.5 mph - N/A   Scattered Clouds
1:35 AM 47.3 °F - 30.4 °F 52% 30.07 in 10.0 mi SSE 4.6 mph - N/A   Scattered Clouds
1:55 AM 47.3 °F - 30.2 °F 52% 30.06 in 10.0 mi SE 4.6 mph - N/A   Mostly Cloudy
2:15 AM 47.3 °F - 29.7 °F 50% 30.06 in 10.0 mi SSE 4.6 mph - N/A   Overcast
2:35 AM 47.5 °F - 29.1 °F 49% 30.06 in 10.0 mi SE 4.6 mph - N/A   Overcast
2:55 AM 47.5 °F - 28.4 °F 48% 30.04 in 10.0 mi SE 4.6 mph - N/A   Overcast
3:15 AM 48.2 °F - 25.9 °F 42% 30.03 in 10.0 mi SE 6.9 mph - N/A   Overcast
3:35 AM 48.9 °F - 23.0 °F 36% 30.02 in 10.0 mi SSE 9.2 mph - N/A   Overcast
3:55 AM 49.1 °F - 22.5 °F 35% 30.02 in 10.0 mi SSE 8.1 mph - N/A   Overcast
4:15 AM 49.1 °F - 23.0 °F 36% 30.02 in 10.0 mi SE 5.8 mph - N/A   Overcast
4:35 AM 48.9 °F - 28.2 °F 45% 30.03 in 10.0 mi SE 4.6 mph - N/A Rain Light Rain
4:55 AM 48.4 °F - 29.5 °F 48% 30.01 in 10.0 mi SE 5.8 mph - N/A   Overcast
5:15 AM 48.6 °F - 28.8 °F 46% 30.00 in 10.0 mi SE 6.9 mph - N/A   Overcast
5:35 AM 48.7 °F - 28.6 °F 46% 29.99 in 10.0 mi SSE 8.1 mph - N/A   Overcast
5:55 AM 48.9 °F - 28.8 °F 46% 29.99 in 10.0 mi SSE 9.2 mph - N/A   Overcast
6:14 AM 49.1 °F - 29.1 °F 46% 29.99 in 10.0 mi SSE 8.1 mph - N/A   Overcast
6:35 AM 49.1 °F - 29.8 °F 47% 29.98 in 10.0 mi SSE 9.2 mph 16.1 mph N/A   Overcast
6:55 AM 49.1 °F - 30.4 °F 49% 29.98 in 10.0 mi SSE 9.2 mph - N/A   Overcast
7:14 AM 49.1 °F - 31.6 °F 51% 29.98 in 10.0 mi SSE 9.2 mph - N/A   Overcast
7:35 AM 49.1 °F - 32.0 °F 52% 29.97 in 10.0 mi SE 9.2 mph - N/A   Scattered Clouds
7:55 AM 50.0 °F - 32.5 °F 51% 29.97 in 10.0 mi SSE 6.9 mph - N/A   Overcast
8:15 AM 51.4 °F - 33.1 °F 50% 29.96 in 10.0 mi SSE 6.9 mph - N/A   Mostly Cloudy
8:35 AM 54.5 °F - 34.3 °F 47% 29.93 in 10.0 mi South 12.7 mph 19.6 mph N/A   Scattered Clouds
8:54 AM 58.1 °F - 34.2 °F 41% 29.93 in 10.0 mi South 12.7 mph 19.6 mph N/A   Clear
9:15 AM 56.5 °F - 33.3 °F 42% 29.92 in 10.0 mi South 10.4 mph 19.6 mph N/A   Scattered Clouds
9:35 AM 59.5 °F - 33.6 °F 38% 29.91 in 10.0 mi South 12.7 mph 20.7 mph N/A   Clear
9:55 AM 59.9 °F - 34.7 °F 39% 29.90 in 10.0 mi South 11.5 mph 24.2 mph N/A   Scattered Clouds
10:15 AM 61.2 °F - 35.4 °F 38% 29.88 in 10.0 mi South 11.5 mph 18.4 mph N/A   Scattered Clouds
10:35 AM 62.1 °F - 35.8 °F 38% 29.87 in 10.0 mi South 12.7 mph 19.6 mph N/A   Mostly Cloudy
10:55 AM 63.7 °F - 36.3 °F 36% 29.86 in 10.0 mi South 12.7 mph 20.7 mph N/A   Scattered Clouds
11:15 AM 64.8 °F - 39.6 °F 40% 29.84 in 10.0 mi SSW 16.1 mph 27.6 mph N/A   Scattered Clouds
11:35 AM 66.4 °F - 40.5 °F 39% 29.83 in 10.0 mi SW 20.7 mph 27.6 mph N/A   Scattered Clouds
11:55 AM 67.5 °F - 41.4 °F 39% 29.83 in 10.0 mi SSW 13.8 mph 26.5 mph N/A   Clear
12:15 PM 68.9 °F - 42.3 °F 38% 29.82 in 10.0 mi SSW 9.2 mph 16.1 mph N/A   Clear
12:35 PM 69.6 °F - 41.9 °F 37% 29.82 in 10.0 mi SSW 13.8 mph 21.9 mph N/A   Clear
12:55 PM 70.7 °F - 45.0 °F 40% 29.82 in 10.0 mi SSW 12.7 mph 24.2 mph N/A   Clear
1:15 PM 71.8 °F - 45.9 °F 39% 29.82 in 10.0 mi SW 13.8 mph 21.9 mph N/A   Clear
1:34 PM 72.0 °F - 46.6 °F 40% 29.83 in 10.0 mi WSW 15.0 mph 24.2 mph N/A   Clear
1:55 PM 72.5 °F - 47.5 °F 41% 29.81 in 10.0 mi SW 12.7 mph 26.5 mph N/A   Clear
2:15 PM 73.8 °F - 47.1 °F 39% 29.80 in 10.0 mi SW 13.8 mph - N/A   Clear
2:34 PM 74.5 °F - 49.3 °F 41% 29.79 in 10.0 mi WSW 16.1 mph 23.0 mph N/A   Clear
2:55 PM 75.0 °F - 48.6 °F 39% 29.79 in 10.0 mi SW 12.7 mph - N/A   Clear
3:15 PM 75.6 °F - 49.1 °F 39% 29.78 in 10.0 mi SW 12.7 mph 20.7 mph N/A   Clear
3:35 PM 75.9 °F - 50.2 °F 40% 29.78 in 10.0 mi West 13.8 mph 25.3 mph N/A   Clear
3:55 PM 76.1 °F - 49.6 °F 39% 29.78 in 10.0 mi SW 9.2 mph 25.3 mph N/A   Clear
4:15 PM 77.4 °F - 51.8 °F 41% 29.77 in 10.0 mi SW 13.8 mph 19.6 mph N/A   Clear
4:35 PM 78.1 °F - 51.6 °F 40% 29.77 in 10.0 mi West 11.5 mph 18.4 mph N/A   Clear
4:55 PM 78.4 °F - 51.6 °F 39% 29.77 in 10.0 mi WSW 11.5 mph 20.7 mph N/A   Clear
5:15 PM 79.9 °F - 52.5 °F 39% 29.77 in 10.0 mi West 10.4 mph 16.1 mph N/A   Clear
5:35 PM 79.9 °F - 50.0 °F 35% 29.76 in 10.0 mi West 9.2 mph - N/A   Clear
5:55 PM 80.1 °F - 49.3 °F 34% 29.78 in 10.0 mi West 9.2 mph 20.7 mph N/A   Clear
6:15 PM 80.1 °F - 48.2 °F 33% 29.77 in 10.0 mi WNW 11.5 mph 17.3 mph N/A   Clear
6:35 PM 77.9 °F - 45.3 °F 31% 29.76 in 10.0 mi West 12.7 mph 18.4 mph N/A   Clear
6:55 PM 75.2 °F - 47.7 °F 38% 29.75 in 10.0 mi WNW 5.8 mph - N/A   Scattered Clouds
7:14 PM 75.4 °F - 47.7 °F 37% 29.75 in 10.0 mi NW 5.8 mph - N/A   Clear
7:35 PM 75.2 °F - 49.3 °F 40% 29.75 in 10.0 mi WNW 3.5 mph - N/A   Clear
7:55 PM 74.7 °F - 50.5 °F 43% 29.73 in 10.0 mi Calm Calm - N/A   Clear
8:14 PM 73.8 °F - 49.6 °F 43% 29.74 in 10.0 mi Calm Calm - N/A   Scattered Clouds
8:35 PM 72.9 °F - 50.9 °F 46% 29.74 in 7.0 mi SW 3.5 mph - N/A   Scattered Clouds
8:55 PM 70.3 °F - 52.2 °F 52% 29.74 in 5.0 mi Calm Calm - N/A   Haze
9:14 PM 64.4 °F - 53.4 °F 67% 29.75 in 10.0 mi SW 3.5 mph - N/A   Clear
9:35 PM 64.9 °F - 52.9 °F 65% 29.76 in 10.0 mi Calm Calm - N/A   Clear
9:55 PM 65.8 °F - 52.0 °F 61% 29.74 in 10.0 mi Calm Calm - N/A   Clear
10:15 PM 62.1 °F - 52.9 °F 72% 29.74 in 10.0 mi SSE 3.5 mph - N/A   Clear
10:35 PM 65.3 °F - 51.6 °F 61% 29.73 in 10.0 mi South 4.6 mph - N/A   Clear
10:55 PM 64.9 °F - 51.1 °F 61% 29.73 in 10.0 mi South 4.6 mph - N/A   Clear
11:15 PM 66.9 °F - 50.2 °F 55% 29.73 in 10.0 mi SSE 4.6 mph - N/A   Clear
11:35 PM 67.5 °F - 49.6 °F 53% 29.72 in 10.0 mi South 6.9 mph - N/A   Clear
11:55 PM 68.5 °F - 49.3 °F 50% 29.71 in 10.0 mi SSW 12.7 mph - N/A   Scattered Clouds